sensor_id;sensor_type;location;lat;lon;timestamp;P1;durP1;ratioP1;P2;durP2;ratioP2
7531;SDS011;3807;49.030;8.714;2024-02-21T00:01:15;17.03;;;7.53;;
7531;SDS011;3807;49.030;8.714;2024-02-21T00:03:42;11.57;;;6.17;;
7531;SDS011;3807;49.030;8.714;2024-02-21T00:06:07;12.93;;;5.13;;
7531;SDS011;3807;49.030;8.714;2024-02-21T00:08:32;9.50;;;5.00;;
7531;SDS011;3807;49.030;8.714;2024-02-21T00:10:58;15.60;;;5.37;;
7531;SDS011;3807;49.030;8.714;2024-02-21T00:13:23;13.87;;;5.77;;
7531;SDS011;3807;49.030;8.714;2024-02-21T00:15:49;14.27;;;7.10;;
7531;SDS011;3807;49.030;8.714;2024-02-21T00:18:14;15.93;;;6.63;;
7531;SDS011;3807;49.030;8.714;2024-02-21T00:20:40;16.37;;;6.43;;
7531;SDS011;3807;49.030;8.714;2024-02-21T00:23:05;14.07;;;6.57;;
7531;SDS011;3807;49.030;8.714;2024-02-21T00:25:30;15.97;;;7.97;;
7531;SDS011;3807;49.030;8.714;2024-02-21T00:27:56;17.60;;;5.13;;
7531;SDS011;3807;49.030;8.714;2024-02-21T00:30:21;9.93;;;4.43;;
7531;SDS011;3807;49.030;8.714;2024-02-21T00:32:46;7.83;;;3.63;;
7531;SDS011;3807;49.030;8.714;2024-02-21T00:35:12;12.20;;;4.00;;
7531;SDS011;3807;49.030;8.714;2024-02-21T00:37:38;12.20;;;4.07;;
7531;SDS011;3807;49.030;8.714;2024-02-21T00:40:04;7.87;;;3.70;;
7531;SDS011;3807;49.030;8.714;2024-02-21T00:42:30;10.30;;;3.80;;
7531;SDS011;3807;49.030;8.714;2024-02-21T00:44:55;10.40;;;3.77;;
7531;SDS011;3807;49.030;8.714;2024-02-21T00:47:21;13.27;;;3.60;;
7531;SDS011;3807;49.030;8.714;2024-02-21T00:49:46;13.20;;;4.10;;
7531;SDS011;3807;49.030;8.714;2024-02-21T00:52:11;11.70;;;3.90;;
7531;SDS011;3807;49.030;8.714;2024-02-21T00:54:37;10.33;;;4.30;;
7531;SDS011;3807;49.030;8.714;2024-02-21T00:57:02;9.40;;;3.57;;
7531;SDS011;3807;49.030;8.714;2024-02-21T00:59:27;8.03;;;3.37;;
7531;SDS011;3807;49.030;8.714;2024-02-21T01:01:53;12.27;;;3.57;;
7531;SDS011;3807;49.030;8.714;2024-02-21T01:04:18;9.63;;;3.93;;
7531;SDS011;3807;49.030;8.714;2024-02-21T01:06:44;24.67;;;3.80;;
7531;SDS011;3807;49.030;8.714;2024-02-21T01:09:10;10.23;;;3.10;;
7531;SDS011;3807;49.030;8.714;2024-02-21T01:11:36;11.33;;;3.20;;
7531;SDS011;3807;49.030;8.714;2024-02-21T01:14:01;9.80;;;3.63;;
7531;SDS011;3807;49.030;8.714;2024-02-21T01:16:27;12.03;;;3.60;;
7531;SDS011;3807;49.030;8.714;2024-02-21T01:18:52;6.20;;;3.30;;
7531;SDS011;3807;49.030;8.714;2024-02-21T01:21:18;9.50;;;3.17;;
7531;SDS011;3807;49.030;8.714;2024-02-21T01:23:43;16.03;;;3.60;;
7531;SDS011;3807;49.030;8.714;2024-02-21T01:26:08;12.17;;;3.30;;
7531;SDS011;3807;49.030;8.714;2024-02-21T01:28:37;11.70;;;3.50;;
7531;SDS011;3807;49.030;8.714;2024-02-21T01:31:03;11.27;;;3.33;;
7531;SDS011;3807;49.030;8.714;2024-02-21T01:33:28;9.83;;;3.07;;
7531;SDS011;3807;49.030;8.714;2024-02-21T01:35:59;10.30;;;2.87;;
7531;SDS011;3807;49.030;8.714;2024-02-21T01:38:25;10.47;;;3.50;;
7531;SDS011;3807;49.030;8.714;2024-02-21T01:40:50;16.17;;;3.93;;
7531;SDS011;3807;49.030;8.714;2024-02-21T01:43:16;10.83;;;3.47;;
7531;SDS011;3807;49.030;8.714;2024-02-21T01:45:45;8.53;;;3.30;;
7531;SDS011;3807;49.030;8.714;2024-02-21T01:48:13;8.30;;;3.00;;
7531;SDS011;3807;49.030;8.714;2024-02-21T01:50:39;9.03;;;2.90;;
7531;SDS011;3807;49.030;8.714;2024-02-21T01:53:05;11.97;;;3.30;;
7531;SDS011;3807;49.030;8.714;2024-02-21T01:55:31;7.30;;;3.07;;
7531;SDS011;3807;49.030;8.714;2024-02-21T01:57:57;10.63;;;2.90;;
7531;SDS011;3807;49.030;8.714;2024-02-21T02:00:22;9.17;;;3.37;;
7531;SDS011;3807;49.030;8.714;2024-02-21T02:02:49;11.57;;;3.23;;
7531;SDS011;3807;49.030;8.714;2024-02-21T02:05:14;8.50;;;3.63;;
7531;SDS011;3807;49.030;8.714;2024-02-21T02:07:42;9.17;;;3.30;;
7531;SDS011;3807;49.030;8.714;2024-02-21T02:10:07;10.23;;;3.70;;
7531;SDS011;3807;49.030;8.714;2024-02-21T02:12:33;9.07;;;3.50;;
7531;SDS011;3807;49.030;8.714;2024-02-21T02:14:59;5.47;;;3.07;;
7531;SDS011;3807;49.030;8.714;2024-02-21T02:17:24;9.10;;;3.33;;
7531;SDS011;3807;49.030;8.714;2024-02-21T02:19:50;7.07;;;3.37;;
7531;SDS011;3807;49.030;8.714;2024-02-21T02:22:16;5.43;;;2.40;;
7531;SDS011;3807;49.030;8.714;2024-02-21T02:24:47;11.07;;;4.10;;
7531;SDS011;3807;49.030;8.714;2024-02-21T02:27:12;6.00;;;3.43;;
7531;SDS011;3807;49.030;8.714;2024-02-21T02:29:37;10.57;;;3.30;;
7531;SDS011;3807;49.030;8.714;2024-02-21T02:32:03;6.20;;;2.93;;
7531;SDS011;3807;49.030;8.714;2024-02-21T02:34:28;10.53;;;2.90;;
7531;SDS011;3807;49.030;8.714;2024-02-21T02:36:55;11.13;;;3.13;;
7531;SDS011;3807;49.030;8.714;2024-02-21T02:39:20;7.37;;;3.07;;
7531;SDS011;3807;49.030;8.714;2024-02-21T02:41:46;16.07;;;4.50;;
7531;SDS011;3807;49.030;8.714;2024-02-21T02:44:11;10.53;;;2.90;;
7531;SDS011;3807;49.030;8.714;2024-02-21T02:46:36;7.17;;;3.00;;
7531;SDS011;3807;49.030;8.714;2024-02-21T02:49:04;9.07;;;3.00;;
7531;SDS011;3807;49.030;8.714;2024-02-21T02:51:30;6.60;;;3.37;;
7531;SDS011;3807;49.030;8.714;2024-02-21T02:53:56;7.20;;;3.07;;
7531;SDS011;3807;49.030;8.714;2024-02-21T02:56:22;6.37;;;3.07;;
7531;SDS011;3807;49.030;8.714;2024-02-21T02:58:47;9.57;;;3.53;;
7531;SDS011;3807;49.030;8.714;2024-02-21T03:01:12;12.90;;;3.30;;
7531;SDS011;3807;49.030;8.714;2024-02-21T03:03:38;8.63;;;2.43;;
7531;SDS011;3807;49.030;8.714;2024-02-21T03:06:04;10.03;;;3.27;;
7531;SDS011;3807;49.030;8.714;2024-02-21T03:08:29;12.80;;;2.93;;
7531;SDS011;3807;49.030;8.714;2024-02-21T03:10:54;8.00;;;2.40;;
7531;SDS011;3807;49.030;8.714;2024-02-21T03:13:20;5.87;;;2.77;;
7531;SDS011;3807;49.030;8.714;2024-02-21T03:15:45;5.73;;;2.93;;
7531;SDS011;3807;49.030;8.714;2024-02-21T03:18:10;7.03;;;2.90;;
7531;SDS011;3807;49.030;8.714;2024-02-21T03:20:36;6.20;;;2.90;;
7531;SDS011;3807;49.030;8.714;2024-02-21T03:23:01;15.17;;;3.77;;
7531;SDS011;3807;49.030;8.714;2024-02-21T03:25:26;7.20;;;3.10;;
7531;SDS011;3807;49.030;8.714;2024-02-21T03:27:52;10.30;;;3.60;;
7531;SDS011;3807;49.030;8.714;2024-02-21T03:30:17;7.00;;;2.63;;
7531;SDS011;3807;49.030;8.714;2024-02-21T03:32:42;7.07;;;2.67;;
7531;SDS011;3807;49.030;8.714;2024-02-21T03:35:08;9.73;;;2.87;;
7531;SDS011;3807;49.030;8.714;2024-02-21T03:37:33;9.73;;;2.63;;
7531;SDS011;3807;49.030;8.714;2024-02-21T03:39:59;9.20;;;2.50;;
7531;SDS011;3807;49.030;8.714;2024-02-21T03:42:24;6.37;;;2.60;;
7531;SDS011;3807;49.030;8.714;2024-02-21T03:44:50;12.17;;;2.63;;
7531;SDS011;3807;49.030;8.714;2024-02-21T03:47:15;9.33;;;3.00;;
7531;SDS011;3807;49.030;8.714;2024-02-21T03:49:40;7.27;;;3.13;;
7531;SDS011;3807;49.030;8.714;2024-02-21T03:52:06;12.57;;;6.60;;
7531;SDS011;3807;49.030;8.714;2024-02-21T03:54:31;14.37;;;5.60;;
7531;SDS011;3807;49.030;8.714;2024-02-21T03:56:57;12.80;;;5.30;;
7531;SDS011;3807;49.030;8.714;2024-02-21T03:59:22;10.27;;;3.53;;
7531;SDS011;3807;49.030;8.714;2024-02-21T04:01:51;7.20;;;3.40;;
7531;SDS011;3807;49.030;8.714;2024-02-21T04:04:17;11.23;;;3.63;;
7531;SDS011;3807;49.030;8.714;2024-02-21T04:06:49;9.93;;;3.43;;
7531;SDS011;3807;49.030;8.714;2024-02-21T04:09:15;9.17;;;3.13;;
7531;SDS011;3807;49.030;8.714;2024-02-21T04:11:41;8.50;;;2.47;;
7531;SDS011;3807;49.030;8.714;2024-02-21T04:14:06;8.17;;;3.23;;
7531;SDS011;3807;49.030;8.714;2024-02-21T04:16:32;9.67;;;3.30;;
7531;SDS011;3807;49.030;8.714;2024-02-21T04:18:57;11.20;;;3.40;;
7531;SDS011;3807;49.030;8.714;2024-02-21T04:21:23;6.37;;;2.83;;
7531;SDS011;3807;49.030;8.714;2024-02-21T04:23:48;6.73;;;2.90;;
7531;SDS011;3807;49.030;8.714;2024-02-21T04:26:13;6.33;;;2.47;;
7531;SDS011;3807;49.030;8.714;2024-02-21T04:28:39;5.20;;;2.97;;
7531;SDS011;3807;49.030;8.714;2024-02-21T04:31:04;6.20;;;2.83;;
7531;SDS011;3807;49.030;8.714;2024-02-21T04:33:30;7.77;;;3.07;;
7531;SDS011;3807;49.030;8.714;2024-02-21T04:35:55;13.37;;;3.33;;
7531;SDS011;3807;49.030;8.714;2024-02-21T04:38:20;8.23;;;3.03;;
7531;SDS011;3807;49.030;8.714;2024-02-21T04:40:46;9.83;;;3.00;;
7531;SDS011;3807;49.030;8.714;2024-02-21T04:43:11;7.23;;;2.53;;
7531;SDS011;3807;49.030;8.714;2024-02-21T04:45:37;11.33;;;3.30;;
7531;SDS011;3807;49.030;8.714;2024-02-21T04:48:02;5.20;;;2.73;;
7531;SDS011;3807;49.030;8.714;2024-02-21T04:50:28;9.80;;;2.73;;
7531;SDS011;3807;49.030;8.714;2024-02-21T04:52:53;9.43;;;3.40;;
7531;SDS011;3807;49.030;8.714;2024-02-21T04:55:18;8.60;;;3.40;;
7531;SDS011;3807;49.030;8.714;2024-02-21T04:57:43;7.40;;;2.80;;
7531;SDS011;3807;49.030;8.714;2024-02-21T05:00:09;9.57;;;2.70;;
7531;SDS011;3807;49.030;8.714;2024-02-21T05:02:35;9.83;;;2.80;;
7531;SDS011;3807;49.030;8.714;2024-02-21T05:05:01;9.20;;;3.20;;
7531;SDS011;3807;49.030;8.714;2024-02-21T05:07:27;7.27;;;3.20;;
7531;SDS011;3807;49.030;8.714;2024-02-21T05:09:52;8.17;;;3.57;;
7531;SDS011;3807;49.030;8.714;2024-02-21T05:12:18;9.07;;;3.00;;
7531;SDS011;3807;49.030;8.714;2024-02-21T05:14:43;10.00;;;3.20;;
7531;SDS011;3807;49.030;8.714;2024-02-21T05:17:08;14.37;;;4.27;;
7531;SDS011;3807;49.030;8.714;2024-02-21T05:19:34;10.17;;;3.13;;
7531;SDS011;3807;49.030;8.714;2024-02-21T05:21:59;7.37;;;3.47;;
7531;SDS011;3807;49.030;8.714;2024-02-21T05:24:24;17.50;;;4.70;;
7531;SDS011;3807;49.030;8.714;2024-02-21T05:26:50;11.37;;;4.43;;
7531;SDS011;3807;49.030;8.714;2024-02-21T05:29:16;12.73;;;4.10;;
7531;SDS011;3807;49.030;8.714;2024-02-21T05:34:15;15.17;;;6.53;;
7531;SDS011;3807;49.030;8.714;2024-02-21T05:36:41;8.67;;;4.47;;
7531;SDS011;3807;49.030;8.714;2024-02-21T05:39:06;10.50;;;5.20;;
7531;SDS011;3807;49.030;8.714;2024-02-21T05:41:31;10.20;;;5.00;;
7531;SDS011;3807;49.030;8.714;2024-02-21T05:43:56;13.33;;;4.77;;
7531;SDS011;3807;49.030;8.714;2024-02-21T05:46:22;26.07;;;11.97;;
7531;SDS011;3807;49.030;8.714;2024-02-21T05:48:47;17.43;;;7.70;;
7531;SDS011;3807;49.030;8.714;2024-02-21T05:51:12;10.87;;;4.77;;
7531;SDS011;3807;49.030;8.714;2024-02-21T05:53:38;12.20;;;5.33;;
7531;SDS011;3807;49.030;8.714;2024-02-21T05:56:09;8.90;;;4.30;;
7531;SDS011;3807;49.030;8.714;2024-02-21T05:58:36;16.27;;;6.90;;
7531;SDS011;3807;49.030;8.714;2024-02-21T06:01:01;22.43;;;11.57;;
7531;SDS011;3807;49.030;8.714;2024-02-21T06:03:28;15.43;;;8.80;;
7531;SDS011;3807;49.030;8.714;2024-02-21T06:05:54;12.83;;;7.87;;
7531;SDS011;3807;49.030;8.714;2024-02-21T06:08:19;13.03;;;6.17;;
7531;SDS011;3807;49.030;8.714;2024-02-21T06:10:45;10.57;;;4.80;;
7531;SDS011;3807;49.030;8.714;2024-02-21T06:13:10;12.97;;;6.60;;
7531;SDS011;3807;49.030;8.714;2024-02-21T06:15:36;13.67;;;6.50;;
7531;SDS011;3807;49.030;8.714;2024-02-21T06:18:01;16.00;;;7.57;;
7531;SDS011;3807;49.030;8.714;2024-02-21T06:20:26;16.97;;;8.03;;
7531;SDS011;3807;49.030;8.714;2024-02-21T06:22:52;16.23;;;6.83;;
7531;SDS011;3807;49.030;8.714;2024-02-21T06:25:18;12.27;;;6.63;;
7531;SDS011;3807;49.030;8.714;2024-02-21T06:27:43;16.43;;;7.43;;
7531;SDS011;3807;49.030;8.714;2024-02-21T06:30:09;18.30;;;6.40;;
7531;SDS011;3807;49.030;8.714;2024-02-21T06:32:35;11.67;;;5.57;;
7531;SDS011;3807;49.030;8.714;2024-02-21T06:35:00;11.67;;;5.30;;
7531;SDS011;3807;49.030;8.714;2024-02-21T06:37:26;12.07;;;5.07;;
7531;SDS011;3807;49.030;8.714;2024-02-21T06:39:52;15.83;;;5.10;;
7531;SDS011;3807;49.030;8.714;2024-02-21T06:42:17;14.83;;;5.10;;
7531;SDS011;3807;49.030;8.714;2024-02-21T06:44:44;7.83;;;4.13;;
7531;SDS011;3807;49.030;8.714;2024-02-21T06:47:09;9.77;;;5.23;;
7531;SDS011;3807;49.030;8.714;2024-02-21T06:49:35;8.83;;;4.80;;
7531;SDS011;3807;49.030;8.714;2024-02-21T06:52:02;15.70;;;5.30;;
7531;SDS011;3807;49.030;8.714;2024-02-21T06:54:29;8.57;;;4.57;;
7531;SDS011;3807;49.030;8.714;2024-02-21T06:56:54;8.93;;;4.53;;
7531;SDS011;3807;49.030;8.714;2024-02-21T06:59:19;9.80;;;4.43;;
7531;SDS011;3807;49.030;8.714;2024-02-21T07:01:45;10.70;;;5.33;;
7531;SDS011;3807;49.030;8.714;2024-02-21T07:04:13;10.87;;;4.00;;
7531;SDS011;3807;49.030;8.714;2024-02-21T07:06:38;10.43;;;4.40;;
7531;SDS011;3807;49.030;8.714;2024-02-21T07:09:03;9.60;;;4.30;;
7531;SDS011;3807;49.030;8.714;2024-02-21T07:11:29;13.33;;;5.40;;
7531;SDS011;3807;49.030;8.714;2024-02-21T07:13:54;10.40;;;4.63;;
7531;SDS011;3807;49.030;8.714;2024-02-21T07:16:19;9.00;;;4.10;;
7531;SDS011;3807;49.030;8.714;2024-02-21T07:18:45;8.80;;;4.07;;
7531;SDS011;3807;49.030;8.714;2024-02-21T07:21:10;11.03;;;4.33;;
7531;SDS011;3807;49.030;8.714;2024-02-21T07:23:35;7.93;;;4.00;;
7531;SDS011;3807;49.030;8.714;2024-02-21T07:26:00;11.10;;;4.03;;
7531;SDS011;3807;49.030;8.714;2024-02-21T07:28:26;7.37;;;3.63;;
7531;SDS011;3807;49.030;8.714;2024-02-21T07:30:51;7.73;;;3.90;;
7531;SDS011;3807;49.030;8.714;2024-02-21T07:33:16;11.33;;;4.80;;
7531;SDS011;3807;49.030;8.714;2024-02-21T07:35:42;9.50;;;3.47;;
7531;SDS011;3807;49.030;8.714;2024-02-21T07:38:09;9.23;;;3.70;;
7531;SDS011;3807;49.030;8.714;2024-02-21T07:40:37;14.60;;;4.03;;
7531;SDS011;3807;49.030;8.714;2024-02-21T07:43:03;8.87;;;4.27;;
7531;SDS011;3807;49.030;8.714;2024-02-21T07:45:28;9.47;;;4.30;;
7531;SDS011;3807;49.030;8.714;2024-02-21T07:47:53;9.67;;;4.27;;
7531;SDS011;3807;49.030;8.714;2024-02-21T07:50:19;6.90;;;4.30;;
7531;SDS011;3807;49.030;8.714;2024-02-21T07:52:44;8.47;;;4.17;;
7531;SDS011;3807;49.030;8.714;2024-02-21T07:55:09;10.23;;;4.53;;
7531;SDS011;3807;49.030;8.714;2024-02-21T07:57:37;10.20;;;4.27;;
7531;SDS011;3807;49.030;8.714;2024-02-21T08:00:03;7.53;;;4.43;;
7531;SDS011;3807;49.030;8.714;2024-02-21T08:02:29;19.57;;;6.83;;
7531;SDS011;3807;49.030;8.714;2024-02-21T08:04:54;16.33;;;5.73;;
7531;SDS011;3807;49.030;8.714;2024-02-21T08:07:20;10.90;;;4.13;;
7531;SDS011;3807;49.030;8.714;2024-02-21T08:09:45;7.07;;;3.97;;
7531;SDS011;3807;49.030;8.714;2024-02-21T08:12:11;17.30;;;4.33;;
7531;SDS011;3807;49.030;8.714;2024-02-21T08:14:36;7.87;;;4.10;;
7531;SDS011;3807;49.030;8.714;2024-02-21T08:17:01;11.57;;;4.60;;
7531;SDS011;3807;49.030;8.714;2024-02-21T08:19:27;9.27;;;3.83;;
7531;SDS011;3807;49.030;8.714;2024-02-21T08:21:52;11.10;;;3.83;;
7531;SDS011;3807;49.030;8.714;2024-02-21T08:24:17;9.37;;;4.17;;
7531;SDS011;3807;49.030;8.714;2024-02-21T08:26:46;12.67;;;3.57;;
7531;SDS011;3807;49.030;8.714;2024-02-21T08:29:14;4.77;;;3.13;;
7531;SDS011;3807;49.030;8.714;2024-02-21T08:31:39;10.93;;;3.70;;
7531;SDS011;3807;49.030;8.714;2024-02-21T08:34:04;9.93;;;3.67;;
7531;SDS011;3807;49.030;8.714;2024-02-21T08:36:30;8.83;;;3.10;;
7531;SDS011;3807;49.030;8.714;2024-02-21T08:38:57;9.70;;;3.40;;
7531;SDS011;3807;49.030;8.714;2024-02-21T08:41:23;7.30;;;3.10;;
7531;SDS011;3807;49.030;8.714;2024-02-21T08:43:52;9.10;;;3.50;;
7531;SDS011;3807;49.030;8.714;2024-02-21T08:46:19;12.73;;;3.60;;
7531;SDS011;3807;49.030;8.714;2024-02-21T08:48:49;5.13;;;3.00;;
7531;SDS011;3807;49.030;8.714;2024-02-21T08:51:16;9.07;;;4.07;;
7531;SDS011;3807;49.030;8.714;2024-02-21T08:53:41;7.00;;;3.90;;
7531;SDS011;3807;49.030;8.714;2024-02-21T08:56:07;17.00;;;4.57;;
7531;SDS011;3807;49.030;8.714;2024-02-21T08:58:33;13.57;;;4.87;;
7531;SDS011;3807;49.030;8.714;2024-02-21T09:00:58;11.53;;;4.20;;
7531;SDS011;3807;49.030;8.714;2024-02-21T09:03:24;8.10;;;3.90;;
7531;SDS011;3807;49.030;8.714;2024-02-21T09:05:50;11.57;;;3.97;;
7531;SDS011;3807;49.030;8.714;2024-02-21T09:08:15;8.97;;;3.50;;
7531;SDS011;3807;49.030;8.714;2024-02-21T09:10:40;7.27;;;3.60;;
7531;SDS011;3807;49.030;8.714;2024-02-21T09:13:06;9.80;;;3.93;;
7531;SDS011;3807;49.030;8.714;2024-02-21T09:15:33;6.23;;;3.30;;
7531;SDS011;3807;49.030;8.714;2024-02-21T09:17:58;10.03;;;3.60;;
7531;SDS011;3807;49.030;8.714;2024-02-21T09:20:24;10.57;;;3.47;;
7531;SDS011;3807;49.030;8.714;2024-02-21T09:22:49;9.50;;;3.93;;
7531;SDS011;3807;49.030;8.714;2024-02-21T09:25:14;13.10;;;4.87;;
7531;SDS011;3807;49.030;8.714;2024-02-21T09:27:40;7.00;;;4.33;;
7531;SDS011;3807;49.030;8.714;2024-02-21T09:30:05;6.43;;;4.13;;
7531;SDS011;3807;49.030;8.714;2024-02-21T09:32:31;8.20;;;4.13;;
7531;SDS011;3807;49.030;8.714;2024-02-21T09:34:57;11.40;;;4.53;;
7531;SDS011;3807;49.030;8.714;2024-02-21T09:37:23;10.73;;;4.10;;
7531;SDS011;3807;49.030;8.714;2024-02-21T09:39:48;13.23;;;4.13;;
7531;SDS011;3807;49.030;8.714;2024-02-21T09:42:15;9.27;;;3.43;;
7531;SDS011;3807;49.030;8.714;2024-02-21T09:44:45;10.43;;;3.10;;
7531;SDS011;3807;49.030;8.714;2024-02-21T09:47:24;10.63;;;2.70;;
7531;SDS011;3807;49.030;8.714;2024-02-21T09:49:59;7.20;;;3.27;;
7531;SDS011;3807;49.030;8.714;2024-02-21T09:52:27;9.27;;;2.97;;
7531;SDS011;3807;49.030;8.714;2024-02-21T09:54:53;6.83;;;3.30;;
7531;SDS011;3807;49.030;8.714;2024-02-21T09:57:19;7.23;;;2.97;;
7531;SDS011;3807;49.030;8.714;2024-02-21T09:59:45;7.83;;;3.13;;
7531;SDS011;3807;49.030;8.714;2024-02-21T10:02:11;5.93;;;3.07;;
7531;SDS011;3807;49.030;8.714;2024-02-21T10:04:37;5.50;;;2.60;;
7531;SDS011;3807;49.030;8.714;2024-02-21T10:07:04;7.27;;;2.77;;
7531;SDS011;3807;49.030;8.714;2024-02-21T10:09:30;16.37;;;2.80;;
7531;SDS011;3807;49.030;8.714;2024-02-21T10:11:55;5.13;;;2.73;;
7531;SDS011;3807;49.030;8.714;2024-02-21T10:14:32;6.43;;;3.00;;
7531;SDS011;3807;49.030;8.714;2024-02-21T10:16:57;13.00;;;3.07;;
7531;SDS011;3807;49.030;8.714;2024-02-21T10:19:24;7.23;;;2.73;;
7531;SDS011;3807;49.030;8.714;2024-02-21T10:22:02;9.53;;;2.33;;
7531;SDS011;3807;49.030;8.714;2024-02-21T10:24:34;6.77;;;3.03;;
7531;SDS011;3807;49.030;8.714;2024-02-21T10:27:03;7.93;;;3.13;;
7531;SDS011;3807;49.030;8.714;2024-02-21T10:29:38;5.27;;;2.17;;
7531;SDS011;3807;49.030;8.714;2024-02-21T10:32:11;11.00;;;2.53;;
7531;SDS011;3807;49.030;8.714;2024-02-21T10:34:38;9.73;;;2.93;;
7531;SDS011;3807;49.030;8.714;2024-02-21T10:37:08;6.83;;;2.70;;
7531;SDS011;3807;49.030;8.714;2024-02-21T10:39:37;3.73;;;2.10;;
7531;SDS011;3807;49.030;8.714;2024-02-21T10:42:04;9.77;;;2.50;;
7531;SDS011;3807;49.030;8.714;2024-02-21T10:44:30;13.10;;;2.90;;
7531;SDS011;3807;49.030;8.714;2024-02-21T10:46:58;9.30;;;2.83;;
7531;SDS011;3807;49.030;8.714;2024-02-21T10:49:24;8.33;;;2.33;;
7531;SDS011;3807;49.030;8.714;2024-02-21T10:51:50;10.43;;;3.03;;
7531;SDS011;3807;49.030;8.714;2024-02-21T10:56:59;6.97;;;2.53;;
7531;SDS011;3807;49.030;8.714;2024-02-21T10:59:27;9.27;;;2.40;;
7531;SDS011;3807;49.030;8.714;2024-02-21T11:01:55;8.90;;;2.40;;
7531;SDS011;3807;49.030;8.714;2024-02-21T11:04:20;6.20;;;2.10;;
7531;SDS011;3807;49.030;8.714;2024-02-21T11:06:46;9.00;;;2.40;;
7531;SDS011;3807;49.030;8.714;2024-02-21T11:09:12;6.80;;;2.60;;
7531;SDS011;3807;49.030;8.714;2024-02-21T11:11:38;6.53;;;2.10;;
7531;SDS011;3807;49.030;8.714;2024-02-21T11:16:37;8.73;;;2.53;;
7531;SDS011;3807;49.030;8.714;2024-02-21T11:19:20;11.63;;;2.37;;
7531;SDS011;3807;49.030;8.714;2024-02-21T11:21:48;7.47;;;2.37;;
7531;SDS011;3807;49.030;8.714;2024-02-21T11:24:25;7.73;;;2.50;;
7531;SDS011;3807;49.030;8.714;2024-02-21T11:26:52;7.13;;;2.27;;
7531;SDS011;3807;49.030;8.714;2024-02-21T11:29:22;9.77;;;2.37;;
7531;SDS011;3807;49.030;8.714;2024-02-21T11:31:49;10.30;;;2.50;;
7531;SDS011;3807;49.030;8.714;2024-02-21T11:34:17;5.70;;;2.37;;
7531;SDS011;3807;49.030;8.714;2024-02-21T11:36:49;8.67;;;2.63;;
7531;SDS011;3807;49.030;8.714;2024-02-21T11:39:20;6.70;;;2.37;;
7531;SDS011;3807;49.030;8.714;2024-02-21T11:42:05;12.17;;;2.60;;
7531;SDS011;3807;49.030;8.714;2024-02-21T11:44:33;5.93;;;2.17;;
7531;SDS011;3807;49.030;8.714;2024-02-21T11:46:59;8.23;;;2.50;;
7531;SDS011;3807;49.030;8.714;2024-02-21T11:49:28;6.27;;;2.20;;
7531;SDS011;3807;49.030;8.714;2024-02-21T11:51:57;9.60;;;2.53;;
7531;SDS011;3807;49.030;8.714;2024-02-21T11:54:27;6.17;;;2.40;;
7531;SDS011;3807;49.030;8.714;2024-02-21T11:56:53;5.50;;;2.20;;
7531;SDS011;3807;49.030;8.714;2024-02-21T11:59:18;9.43;;;2.50;;
7531;SDS011;3807;49.030;8.714;2024-02-21T12:01:44;8.83;;;2.70;;
7531;SDS011;3807;49.030;8.714;2024-02-21T12:04:09;6.33;;;2.30;;
7531;SDS011;3807;49.030;8.714;2024-02-21T12:06:35;7.10;;;2.50;;
7531;SDS011;3807;49.030;8.714;2024-02-21T12:09:00;6.33;;;2.40;;
7531;SDS011;3807;49.030;8.714;2024-02-21T12:11:26;7.87;;;2.37;;
7531;SDS011;3807;49.030;8.714;2024-02-21T12:14:03;4.87;;;1.90;;
7531;SDS011;3807;49.030;8.714;2024-02-21T12:16:33;7.17;;;2.40;;
7531;SDS011;3807;49.030;8.714;2024-02-21T12:18:59;6.43;;;2.70;;
7531;SDS011;3807;49.030;8.714;2024-02-21T12:21:34;13.80;;;2.40;;
7531;SDS011;3807;49.030;8.714;2024-02-21T12:24:13;6.73;;;2.50;;
7531;SDS011;3807;49.030;8.714;2024-02-21T12:26:40;12.63;;;3.00;;
7531;SDS011;3807;49.030;8.714;2024-02-21T12:29:05;9.23;;;2.67;;
7531;SDS011;3807;49.030;8.714;2024-02-21T12:31:31;4.17;;;1.80;;
7531;SDS011;3807;49.030;8.714;2024-02-21T12:33:57;8.10;;;2.63;;
7531;SDS011;3807;49.030;8.714;2024-02-21T12:36:22;5.00;;;2.10;;
7531;SDS011;3807;49.030;8.714;2024-02-21T12:38:47;3.73;;;2.03;;
7531;SDS011;3807;49.030;8.714;2024-02-21T12:41:14;8.00;;;2.27;;
7531;SDS011;3807;49.030;8.714;2024-02-21T12:43:39;5.73;;;2.17;;
7531;SDS011;3807;49.030;8.714;2024-02-21T12:46:05;7.67;;;2.37;;
7531;SDS011;3807;49.030;8.714;2024-02-21T12:48:32;6.00;;;2.30;;
7531;SDS011;3807;49.030;8.714;2024-02-21T12:50:58;7.13;;;2.37;;
7531;SDS011;3807;49.030;8.714;2024-02-21T12:53:23;7.70;;;1.97;;
7531;SDS011;3807;49.030;8.714;2024-02-21T12:55:49;10.57;;;2.33;;
7531;SDS011;3807;49.030;8.714;2024-02-21T12:58:14;5.23;;;1.90;;
7531;SDS011;3807;49.030;8.714;2024-02-21T13:00:40;4.67;;;1.90;;
7531;SDS011;3807;49.030;8.714;2024-02-21T13:03:06;5.87;;;2.07;;
7531;SDS011;3807;49.030;8.714;2024-02-21T13:05:31;4.43;;;2.17;;
7531;SDS011;3807;49.030;8.714;2024-02-21T13:07:57;6.17;;;2.10;;
7531;SDS011;3807;49.030;8.714;2024-02-21T13:10:23;3.93;;;1.97;;
7531;SDS011;3807;49.030;8.714;2024-02-21T13:12:48;5.73;;;2.00;;
7531;SDS011;3807;49.030;8.714;2024-02-21T13:15:14;9.20;;;2.40;;
7531;SDS011;3807;49.030;8.714;2024-02-21T13:17:41;6.37;;;2.03;;
7531;SDS011;3807;49.030;8.714;2024-02-21T13:20:06;5.17;;;2.03;;
7531;SDS011;3807;49.030;8.714;2024-02-21T13:22:33;9.57;;;2.63;;
7531;SDS011;3807;49.030;8.714;2024-02-21T13:24:59;4.93;;;2.20;;
7531;SDS011;3807;49.030;8.714;2024-02-21T13:27:25;4.07;;;2.30;;
7531;SDS011;3807;49.030;8.714;2024-02-21T13:29:50;3.70;;;2.07;;
7531;SDS011;3807;49.030;8.714;2024-02-21T13:32:16;6.97;;;2.20;;
7531;SDS011;3807;49.030;8.714;2024-02-21T13:34:41;5.27;;;2.00;;
7531;SDS011;3807;49.030;8.714;2024-02-21T13:37:07;5.00;;;2.00;;
7531;SDS011;3807;49.030;8.714;2024-02-21T13:39:34;5.67;;;1.70;;
7531;SDS011;3807;49.030;8.714;2024-02-21T13:42:03;5.10;;;1.97;;
7531;SDS011;3807;49.030;8.714;2024-02-21T13:44:30;3.00;;;2.03;;
7531;SDS011;3807;49.030;8.714;2024-02-21T13:46:56;4.90;;;2.07;;
7531;SDS011;3807;49.030;8.714;2024-02-21T13:49:21;5.33;;;1.80;;
7531;SDS011;3807;49.030;8.714;2024-02-21T13:51:47;7.17;;;2.33;;
7531;SDS011;3807;49.030;8.714;2024-02-21T13:54:12;4.20;;;2.17;;
7531;SDS011;3807;49.030;8.714;2024-02-21T13:56:41;5.10;;;1.97;;
7531;SDS011;3807;49.030;8.714;2024-02-21T13:59:07;5.77;;;1.77;;
7531;SDS011;3807;49.030;8.714;2024-02-21T14:01:33;7.23;;;2.00;;
7531;SDS011;3807;49.030;8.714;2024-02-21T14:03:58;5.00;;;2.00;;
7531;SDS011;3807;49.030;8.714;2024-02-21T14:06:24;3.73;;;1.90;;
7531;SDS011;3807;49.030;8.714;2024-02-21T14:08:49;6.47;;;2.23;;
7531;SDS011;3807;49.030;8.714;2024-02-21T14:11:15;6.73;;;2.07;;
7531;SDS011;3807;49.030;8.714;2024-02-21T14:13:40;8.37;;;2.40;;
7531;SDS011;3807;49.030;8.714;2024-02-21T14:16:11;4.73;;;1.83;;
7531;SDS011;3807;49.030;8.714;2024-02-21T14:18:40;3.80;;;2.00;;
7531;SDS011;3807;49.030;8.714;2024-02-21T14:21:08;5.13;;;2.10;;
7531;SDS011;3807;49.030;8.714;2024-02-21T14:23:37;8.70;;;2.20;;
7531;SDS011;3807;49.030;8.714;2024-02-21T14:26:03;5.27;;;2.20;;
7531;SDS011;3807;49.030;8.714;2024-02-21T14:28:29;6.43;;;1.80;;
7531;SDS011;3807;49.030;8.714;2024-02-21T14:30:55;7.47;;;2.27;;
7531;SDS011;3807;49.030;8.714;2024-02-21T14:33:23;9.43;;;2.43;;
7531;SDS011;3807;49.030;8.714;2024-02-21T14:35:49;5.33;;;2.00;;
7531;SDS011;3807;49.030;8.714;2024-02-21T14:38:14;8.53;;;2.60;;
7531;SDS011;3807;49.030;8.714;2024-02-21T14:40:40;5.03;;;1.83;;
7531;SDS011;3807;49.030;8.714;2024-02-21T14:43:05;4.17;;;1.77;;
7531;SDS011;3807;49.030;8.714;2024-02-21T14:45:30;10.77;;;1.80;;
7531;SDS011;3807;49.030;8.714;2024-02-21T14:47:56;8.83;;;2.60;;
7531;SDS011;3807;49.030;8.714;2024-02-21T14:50:21;7.57;;;2.20;;
7531;SDS011;3807;49.030;8.714;2024-02-21T14:52:48;5.40;;;2.13;;
7531;SDS011;3807;49.030;8.714;2024-02-21T14:55:13;7.13;;;2.70;;
7531;SDS011;3807;49.030;8.714;2024-02-21T14:57:39;3.87;;;2.23;;
7531;SDS011;3807;49.030;8.714;2024-02-21T15:00:06;4.93;;;2.10;;
7531;SDS011;3807;49.030;8.714;2024-02-21T15:02:33;3.47;;;2.00;;
7531;SDS011;3807;49.030;8.714;2024-02-21T15:05:00;6.63;;;2.00;;
7531;SDS011;3807;49.030;8.714;2024-02-21T15:07:25;9.17;;;2.30;;
7531;SDS011;3807;49.030;8.714;2024-02-21T15:09:51;4.93;;;2.37;;
7531;SDS011;3807;49.030;8.714;2024-02-21T15:12:17;7.47;;;2.63;;